^^
Station Historical Data
Daily Summary for Nil La, TWC- Units:  English    Metric   Both
« Previous Day
Next Day »
Daily Weekly Monthly Yearly Custom
  High: Low: Average:
Temperature: TemperatureF °F 50.7 °F 63.5 °F
Dew Point: DewpointF °F 35.6 °F 37.2 °F
Humidity: Humidity% 31% 37%
Wind Speed: WindSpeedMPHmph -999.9mph -16mph
Wind Gust: WindSpeedGustMPHmph - -
Wind- -
Pressure: PressureIn in 29.95 in -
Precipitation: 0.00 in    
Historical Graphs
 
 
Tabular Data for Nil La, TWC-
Time Temperature Dew Point Pressure Wind Wind Speed Wind Gust Humidity Rainfall Rate (Hourly) solar Conditions
TemperatureF °F DewpointF °F PressureIn in Calm     Humidity% HourlyPrecipIn in SoftwareType W/m2 Conditions
08:18 50.7 °F 35.6 °F 29.96 in North -999.9 mph -999.0 mph 56% 0.00 in meteobridge W/m2
08:24 52.7 °F 37.4 °F 29.97 in Calm     56% 0.00 in meteobridge W/m2
08:31 54.1 °F 36.9 °F 29.97 in Calm     52% 0.00 in meteobridge W/m2
08:37 55.2 °F 36.9 °F 29.98 in Calm     50% 0.00 in meteobridge W/m2
08:43 56.7 °F 37.8 °F 29.98 in Calm     49% 0.00 in meteobridge W/m2
08:49 58.3 °F 38.7 °F 29.98 in Calm     48% 0.00 in meteobridge W/m2
08:55 58.8 °F 38.1 °F 29.98 in Calm     46% 0.00 in meteobridge W/m2
09:02 59.5 °F 38.7 °F 29.99 in Calm     46% 0.00 in meteobridge W/m2
09:08 60.6 °F 38.7 °F 29.99 in Calm     44% 0.00 in meteobridge W/m2
09:14 61.9 °F 39.7 °F 29.99 in Calm     44% 0.00 in meteobridge W/m2
09:20 62.8 °F 38.7 °F 29.99 in Calm     41% 0.00 in meteobridge W/m2
09:27 63.7 °F 38.3 °F 30.00 in Calm     39% 0.00 in meteobridge W/m2
09:33 64.0 °F 37.9 °F 30.00 in Calm     38% 0.00 in meteobridge W/m2
09:39 64.6 °F 39.0 °F 30.00 in Calm   1.0 mph 39% 0.00 in meteobridge W/m2
09:45 64.8 °F 38.5 °F 30.00 in NW 0.9 mph 3.0 mph 38% 0.00 in meteobridge W/m2
09:51 64.8 °F 38.5 °F 30.00 in Calm   3.0 mph 38% 0.00 in meteobridge W/m2
09:57 64.9 °F 38.7 °F 30.01 in Calm   1.0 mph 38% 0.00 in meteobridge W/m2
10:03 65.3 °F 39.0 °F 30.00 in SE 0.9 mph 3.0 mph 38% 0.00 in meteobridge W/m2
10:10 65.3 °F 39.0 °F 30.01 in Calm     38% 0.00 in meteobridge W/m2
10:16 65.8 °F 38.8 °F 30.01 in Calm   4.0 mph 37% 0.00 in meteobridge W/m2
10:22 65.8 °F 38.8 °F 30.01 in ENE 2.0 mph 6.0 mph 37% 0.00 in meteobridge W/m2
10:28 65.8 °F 39.6 °F 30.01 in NNE 4.9 mph 7.0 mph 38% 0.00 in meteobridge W/m2
10:34 65.7 °F 38.7 °F 30.01 in NE 2.0 mph 7.0 mph 37% 0.00 in meteobridge W/m2
10:41 65.7 °F 39.4 °F 30.01 in NNE 2.9 mph 7.0 mph 38% 0.00 in meteobridge W/m2
10:47 65.8 °F 38.8 °F 30.01 in NE 4.0 mph 9.0 mph 37% 0.00 in meteobridge W/m2
10:53 65.5 °F 38.5 °F 30.01 in NNE 4.9 mph 9.0 mph 37% 0.00 in meteobridge W/m2
10:59 65.5 °F 38.5 °F 30.01 in Calm   7.0 mph 37% 0.00 in meteobridge W/m2
11:05 66.0 °F 38.3 °F 30.01 in NE 4.0 mph 7.0 mph 36% 0.00 in meteobridge W/m2
11:11 66.0 °F 38.3 °F 30.01 in NE 6.0 mph 9.0 mph 36% 0.00 in meteobridge W/m2
11:17 65.8 °F 37.4 °F 30.01 in NE 6.9 mph 9.0 mph 35% 0.00 in meteobridge W/m2
11:23 65.8 °F 37.4 °F 30.00 in NE 10.1 mph 11.0 mph 35% 0.00 in meteobridge W/m2
11:30 65.8 °F 37.4 °F 30.00 in NE 6.0 mph 10.0 mph 35% 0.00 in meteobridge W/m2
11:36 66.2 °F 37.0 °F 30.00 in NNE 6.0 mph 12.0 mph 34% 0.00 in meteobridge W/m2
11:42 66.0 °F 36.1 °F 30.01 in East 2.0 mph 11.0 mph 33% 0.00 in meteobridge W/m2
11:48 66.2 °F 37.0 °F 30.00 in NNE 6.0 mph 15.0 mph 34% 0.00 in meteobridge W/m2
11:54 66.4 °F 36.3 °F 30.00 in East 2.0 mph 2.0 mph 33% 0.00 in meteobridge W/m2
12:00 66.6 °F 36.5 °F 30.00 in Calm   5.0 mph 33% 0.00 in meteobridge W/m2
12:06 66.9 °F 36.9 °F 29.99 in South 2.0 mph 5.0 mph 33% 0.00 in meteobridge W/m2
12:12 66.9 °F 37.6 °F 29.99 in Calm   3.0 mph 34% 0.00 in meteobridge W/m2
12:18 67.8 °F 37.6 °F 29.99 in NE 4.0 mph 5.0 mph 33% 0.00 in meteobridge W/m2
12:25 68.0 °F 37.8 °F 29.99 in SSW 0.9 mph 4.0 mph 33% 0.00 in meteobridge W/m2
12:31 67.6 °F 36.7 °F 29.98 in SE 2.0 mph 10.0 mph 32% 0.00 in meteobridge W/m2
12:37 67.5 °F 38.1 °F 29.98 in SSE 4.0 mph 5.0 mph 34% 0.00 in meteobridge W/m2
12:43 67.8 °F 37.6 °F 29.98 in South 2.0 mph 2.0 mph 33% 0.00 in meteobridge W/m2
12:49 67.8 °F 37.6 °F 29.98 in SE 11.0 mph 11.0 mph 33% 0.00 in meteobridge W/m2
12:55 68.2 °F 37.2 °F 29.98 in East 2.9 mph 5.0 mph 32% 0.00 in meteobridge W/m2
13:01 68.7 °F 37.6 °F 29.97 in SSE 0.9 mph 4.0 mph 32% 0.00 in meteobridge W/m2
13:07 67.8 °F 37.6 °F 29.97 in South 6.0 mph 10.0 mph 33% 0.00 in meteobridge W/m2
13:14 67.8 °F 36.9 °F 29.97 in Calm   5.0 mph 32% 0.00 in meteobridge W/m2
13:20 68.9 °F 37.8 °F 29.96 in Calm   1.0 mph 32% 0.00 in meteobridge W/m2
13:26 69.4 °F 37.4 °F 29.96 in ENE 11.0 mph 11.0 mph 31% 0.00 in meteobridge W/m2
13:32 69.1 °F 37.9 °F 29.96 in North 0.9 mph 10.0 mph 32% 0.00 in meteobridge W/m2
13:38 68.7 °F 36.9 °F 29.95 in Calm   1.0 mph 31% 0.00 in meteobridge W/m2
13:44 68.2 °F 36.3 °F 29.95 in South 2.0 mph 9.0 mph 31% 0.00 in meteobridge W/m2
Regenstein, Windhoek, Namibia
Compliments of Weather Underground - 2 mb